createdAt,value
2019-03-24T00:02:28.281Z,12.33
2019-03-24T00:04:59.187Z,13.23
2019-03-24T00:07:31.959Z,13.53
2019-03-24T00:10:06.587Z,17.07
2019-03-24T00:12:37.504Z,15.67
2019-03-24T00:15:08.896Z,20.30
2019-03-24T00:17:39.810Z,17.00
2019-03-24T00:20:11.092Z,13.67
2019-03-24T00:22:42.029Z,17.10
2019-03-24T00:25:12.928Z,15.77
2019-03-24T00:27:43.854Z,12.23
2019-03-24T00:30:14.960Z,16.43
2019-03-24T00:32:45.876Z,15.17
2019-03-24T00:35:16.781Z,16.40
2019-03-24T00:37:47.727Z,19.00
2019-03-24T00:40:18.689Z,20.47
2019-03-24T00:42:49.621Z,12.17
2019-03-24T00:45:20.510Z,11.80
2019-03-24T00:47:52.328Z,12.77
2019-03-24T00:50:23.235Z,13.53
2019-03-24T00:52:54.222Z,16.10
2019-03-24T00:55:25.118Z,15.90
2019-03-24T00:57:56.044Z,13.33
2019-03-24T01:00:47.324Z,11.77
2019-03-24T01:03:18.327Z,11.53
2019-03-24T01:05:49.330Z,13.13
2019-03-24T01:08:21.131Z,8.80
2019-03-24T01:10:52.818Z,13.90
2019-03-24T01:13:23.756Z,14.23
2019-03-24T01:15:54.657Z,14.03
2019-03-24T01:18:25.584Z,11.30
2019-03-24T01:20:56.475Z,10.87
2019-03-24T01:23:27.414Z,11.03
2019-03-24T01:25:58.302Z,11.13
2019-03-24T01:28:29.230Z,14.87
2019-03-24T01:31:00.116Z,9.80
2019-03-24T01:33:31.034Z,15.50
2019-03-24T01:36:01.922Z,9.40
2019-03-24T01:38:33.748Z,16.37
2019-03-24T01:41:08.233Z,12.77
2019-03-24T01:43:39.144Z,13.30
2019-03-24T01:46:10.053Z,11.70
2019-03-24T01:48:40.982Z,11.77
2019-03-24T01:51:11.877Z,9.73
2019-03-24T01:53:43.678Z,12.13
2019-03-24T01:56:14.570Z,16.43
2019-03-24T01:58:45.484Z,13.10
2019-03-24T02:01:16.456Z,11.90
2019-03-24T02:03:47.374Z,13.67
2019-03-24T02:06:18.259Z,14.10
2019-03-24T02:08:50.126Z,12.27
2019-03-24T02:11:21.794Z,15.57
2019-03-24T02:13:53.560Z,12.77
2019-03-24T02:16:24.476Z,11.00
2019-03-24T02:18:55.406Z,13.47
2019-03-24T02:21:26.306Z,10.30
2019-03-24T02:23:58.140Z,11.13
2019-03-24T02:26:29.100Z,12.63
2019-03-24T02:29:00.034Z,12.67
2019-03-24T02:31:34.490Z,13.43
2019-03-24T02:34:05.428Z,12.77
2019-03-24T02:36:36.333Z,14.07
2019-03-24T02:39:12.008Z,9.83
2019-03-24T02:41:42.907Z,9.73
2019-03-24T02:44:14.650Z,11.20
2019-03-24T02:46:45.557Z,21.97
2019-03-24T02:49:16.471Z,10.20
2019-03-24T02:51:47.436Z,11.07
2019-03-24T02:54:19.273Z,10.73
2019-03-24T02:56:50.141Z,17.60
2019-03-24T02:59:21.065Z,11.10
2019-03-24T03:01:51.962Z,12.00
2019-03-24T03:04:22.874Z,13.50
2019-03-24T03:06:53.774Z,13.50
2019-03-24T03:09:24.724Z,8.83
2019-03-24T03:11:55.623Z,12.63
2019-03-24T03:14:26.541Z,11.10
2019-03-24T03:16:57.434Z,11.50
2019-03-24T03:19:28.345Z,12.83
2019-03-24T03:21:59.252Z,9.43
2019-03-24T03:24:30.492Z,9.20
2019-03-24T03:27:01.495Z,10.20
2019-03-24T03:29:32.410Z,10.33
2019-03-24T03:32:04.426Z,11.60
2019-03-24T03:34:35.329Z,11.70
2019-03-24T03:37:06.416Z,10.50
2019-03-24T03:39:38.194Z,9.70
2019-03-24T03:42:09.124Z,12.33
2019-03-24T03:44:40.055Z,10.47
2019-03-24T03:47:10.949Z,11.80
2019-03-24T03:49:41.869Z,12.07
2019-03-24T03:52:12.787Z,10.33
2019-03-24T03:54:43.740Z,7.87
2019-03-24T03:57:17.173Z,9.17
2019-03-24T03:59:47.250Z,10.40
2019-03-24T04:02:18.239Z,10.60
2019-03-24T04:04:49.164Z,10.30
2019-03-24T04:07:20.054Z,13.30
2019-03-24T04:09:51.007Z,13.50
2019-03-24T04:12:22.708Z,11.27
2019-03-24T04:14:53.568Z,10.13
2019-03-24T04:17:24.535Z,9.77
2019-03-24T04:19:55.468Z,12.20
2019-03-24T04:22:26.367Z,12.30
2019-03-24T04:24:57.290Z,10.87
2019-03-24T04:27:28.200Z,11.20
2019-03-24T04:30:10.191Z,11.43
2019-03-24T04:32:37.133Z,9.77
2019-03-24T04:35:09.265Z,11.50
2019-03-24T04:37:40.156Z,10.90
2019-03-24T04:40:12.000Z,10.77
2019-03-24T04:42:42.896Z,11.53
2019-03-24T04:45:13.916Z,14.33
2019-03-24T04:47:44.812Z,6.40
2019-03-24T04:50:15.858Z,14.97
2019-03-24T04:52:46.726Z,13.10
2019-03-24T04:55:17.689Z,11.17
2019-03-24T04:57:48.592Z,17.43
2019-03-24T05:00:22.437Z,13.57
2019-03-24T05:02:56.334Z,12.87
2019-03-24T05:05:27.266Z,13.30
2019-03-24T05:07:58.671Z,14.50
2019-03-24T05:10:29.615Z,13.60
2019-03-24T05:13:01.293Z,12.53
2019-03-24T05:15:32.221Z,13.07
2019-03-24T05:18:03.124Z,13.33
2019-03-24T05:20:34.053Z,15.13
2019-03-24T05:23:07.892Z,12.07
2019-03-24T05:25:38.835Z,11.97
2019-03-24T05:28:09.720Z,15.60
2019-03-24T05:30:40.660Z,11.70
2019-03-24T05:33:17.544Z,16.03
2019-03-24T05:35:48.706Z,16.97
2019-03-24T05:38:19.606Z,16.97
2019-03-24T05:40:50.665Z,20.33
2019-03-24T05:43:21.560Z,16.73
2019-03-24T05:45:52.473Z,14.57
2019-03-24T05:48:23.383Z,14.23
2019-03-24T05:50:54.318Z,15.90
2019-03-24T05:53:25.226Z,15.03
2019-03-24T05:55:56.182Z,15.23
2019-03-24T05:58:27.074Z,12.90
2019-03-24T06:00:58.006Z,13.33
2019-03-24T06:03:28.910Z,18.10
2019-03-24T06:05:59.837Z,18.10
2019-03-24T06:08:30.729Z,16.77
2019-03-24T06:11:02.587Z,14.80
2019-03-24T06:13:33.464Z,20.20
2019-03-24T06:16:04.398Z,14.07
2019-03-24T06:18:35.313Z,14.23
2019-03-24T06:21:06.224Z,16.37
2019-03-24T06:23:37.124Z,18.93
2019-03-24T06:26:08.090Z,18.77
2019-03-24T06:28:38.986Z,11.50
2019-03-24T06:31:09.925Z,15.33
2019-03-24T06:33:40.828Z,17.00
2019-03-24T06:36:11.750Z,11.43
2019-03-24T06:38:42.651Z,14.47
2019-03-24T06:41:14.412Z,14.67
2019-03-24T06:43:45.312Z,15.17
2019-03-24T06:46:16.237Z,16.50
2019-03-24T06:48:47.142Z,14.23
2019-03-24T06:51:18.069Z,22.53
2019-03-24T06:53:48.962Z,14.70
2019-03-24T06:56:21.512Z,14.60
2019-03-24T06:58:52.404Z,16.83
2019-03-24T07:01:23.360Z,12.70
2019-03-24T07:03:54.222Z,15.73
2019-03-24T07:06:25.150Z,16.13
2019-03-24T07:08:56.050Z,14.77
2019-03-24T07:11:27.874Z,15.53
2019-03-24T07:13:58.769Z,14.57
2019-03-24T07:16:29.698Z,13.13
2019-03-24T07:19:00.595Z,13.13
2019-03-24T07:21:31.543Z,15.00
2019-03-24T07:24:02.433Z,17.83
2019-03-24T07:26:35.043Z,19.67
2019-03-24T07:29:05.961Z,16.13
2019-03-24T07:31:36.887Z,10.07
2019-03-24T07:34:07.843Z,16.43
2019-03-24T07:36:38.771Z,10.97
2019-03-24T07:39:09.741Z,17.10
2019-03-24T07:41:41.504Z,15.43
2019-03-24T07:44:12.394Z,17.53
2019-03-24T07:46:43.319Z,18.23
2019-03-24T07:49:14.298Z,12.83
2019-03-24T07:51:45.219Z,15.43
2019-03-24T07:54:16.186Z,11.00
2019-03-24T07:56:48.767Z,16.63
2019-03-24T07:59:19.667Z,15.17
2019-03-24T08:01:50.594Z,16.60
2019-03-24T08:04:21.495Z,13.83
2019-03-24T08:06:57.117Z,13.43
2019-03-24T08:09:28.579Z,15.00
2019-03-24T08:12:00.390Z,10.77
2019-03-24T08:14:32.130Z,16.27
2019-03-24T08:17:03.065Z,17.70
2019-03-24T08:19:33.960Z,16.33
2019-03-24T08:22:04.962Z,18.97
2019-03-24T08:24:36.103Z,19.13
2019-03-24T08:27:07.912Z,16.67
2019-03-24T08:29:40.131Z,17.77
2019-03-24T08:32:11.483Z,12.63
2019-03-24T08:34:42.375Z,14.97
2019-03-24T08:37:14.082Z,15.53
2019-03-24T08:39:44.995Z,15.97
2019-03-24T08:42:16.948Z,16.47
2019-03-24T08:44:47.865Z,16.03
2019-03-24T08:47:18.778Z,11.53
2019-03-24T08:49:50.191Z,13.37
2019-03-24T08:52:21.135Z,16.93
2019-03-24T08:54:52.064Z,16.67
2019-03-24T08:57:23.900Z,13.57
2019-03-24T08:59:54.819Z,13.48
2019-03-24T09:02:25.753Z,9.70
2019-03-24T09:04:56.682Z,15.10
2019-03-24T09:07:27.614Z,13.73
2019-03-24T09:09:58.522Z,12.80
2019-03-24T09:12:31.249Z,15.10
2019-03-24T09:15:02.113Z,17.17
2019-03-24T09:17:33.077Z,11.85
2019-03-24T09:20:05.364Z,16.25
2019-03-24T09:22:36.300Z,12.78
2019-03-24T09:25:08.122Z,13.15
2019-03-24T09:27:40.004Z,14.25
2019-03-24T09:30:16.385Z,9.55
2019-03-24T09:32:47.308Z,11.85
2019-03-24T09:35:18.222Z,13.28
2019-03-24T09:37:49.171Z,14.73
2019-03-24T09:40:28.605Z,15.63
2019-03-24T09:43:01.977Z,15.68
2019-03-24T09:45:33.173Z,7.87
2019-03-24T09:48:04.404Z,14.18
2019-03-24T09:50:35.305Z,14.13
2019-03-24T09:53:06.737Z,9.48
2019-03-24T09:55:37.645Z,11.38
2019-03-24T09:58:09.472Z,12.78
2019-03-24T10:00:40.378Z,15.55
2019-03-24T10:03:11.307Z,15.32
2019-03-24T10:05:42.229Z,19.12
2019-03-24T10:08:13.447Z,13.70
2019-03-24T10:10:44.318Z,13.45
2019-03-24T10:13:15.267Z,44.03
2019-03-24T10:15:46.186Z,25.60
2019-03-24T10:18:17.116Z,21.85
2019-03-24T10:20:51.140Z,19.85
2019-03-24T10:23:22.201Z,42.60
2019-03-24T10:25:53.064Z,33.23
2019-03-24T10:28:24.820Z,62.25
2019-03-24T10:30:55.731Z,46.23
2019-03-24T10:33:26.694Z,23.12
2019-03-24T10:35:57.612Z,14.55
2019-03-24T10:38:28.547Z,24.65
2019-03-24T10:40:59.449Z,19.40
2019-03-24T10:43:31.410Z,20.25
2019-03-24T10:46:08.034Z,14.68
2019-03-24T10:48:35.112Z,20.52
2019-03-24T10:51:06.078Z,12.75
2019-03-24T10:53:37.010Z,16.07
2019-03-24T10:56:07.907Z,16.97
2019-03-24T10:58:39.726Z,27.70
2019-03-24T11:01:10.710Z,102.58
2019-03-24T11:03:41.656Z,58.85
2019-03-24T11:06:12.565Z,22.58
2019-03-24T11:08:43.510Z,14.95
2019-03-24T11:11:14.430Z,14.38
2019-03-24T11:13:45.377Z,12.50
2019-03-24T11:16:17.944Z,13.85
2019-03-24T11:18:48.949Z,23.57
2019-03-24T11:21:19.849Z,14.78
2019-03-24T11:23:50.773Z,13.48
2019-03-24T11:26:21.684Z,14.40
2019-03-24T11:28:53.544Z,23.45
2019-03-24T11:31:24.455Z,23.35
2019-03-24T11:33:55.388Z,14.00
2019-03-24T11:36:26.292Z,13.60
2019-03-24T11:38:59.064Z,11.33
2019-03-24T11:41:29.826Z,21.37
2019-03-24T11:44:01.731Z,19.00
2019-03-24T11:46:32.665Z,21.15
2019-03-24T11:49:03.593Z,16.12
2019-03-24T11:51:34.502Z,15.85
2019-03-24T11:54:05.427Z,16.97
2019-03-24T11:56:36.338Z,20.50
2019-03-24T11:59:08.488Z,17.00
2019-03-24T12:01:39.635Z,10.70
2019-03-24T12:04:10.632Z,12.85
2019-03-24T12:06:41.552Z,14.30
2019-03-24T12:09:12.562Z,13.20
2019-03-24T12:11:43.458Z,15.25
2019-03-24T12:14:15.258Z,16.73
2019-03-24T12:16:47.869Z,13.48
2019-03-24T12:19:18.804Z,37.50
2019-03-24T12:21:49.784Z,18.15
2019-03-24T12:24:20.722Z,22.52
2019-03-24T12:26:51.636Z,24.92
2019-03-24T12:29:23.450Z,13.75
2019-03-24T12:31:54.351Z,18.67
2019-03-24T12:34:25.319Z,18.42
2019-03-24T12:36:56.444Z,20.37
2019-03-24T12:39:28.172Z,12.95
2019-03-24T12:41:59.075Z,13.00
2019-03-24T12:44:31.053Z,14.47
2019-03-24T12:47:01.960Z,15.20
2019-03-24T12:49:32.899Z,11.70
2019-03-24T12:52:03.808Z,14.63
2019-03-24T12:54:34.804Z,13.05
2019-03-24T12:57:05.722Z,17.45
2019-03-24T12:59:37.592Z,25.75
2019-03-24T13:02:08.513Z,19.17
2019-03-24T13:04:39.452Z,16.20
2019-03-24T13:07:10.366Z,33.85
2019-03-24T13:09:41.301Z,15.28
2019-03-24T13:12:12.227Z,13.32
2019-03-24T13:14:44.144Z,13.75
2019-03-24T13:17:15.928Z,12.95
2019-03-24T13:19:46.859Z,10.98
2019-03-24T13:22:19.152Z,10.80
2019-03-24T13:24:50.139Z,10.48
2019-03-24T13:27:21.054Z,14.95
2019-03-24T13:29:52.029Z,13.03
2019-03-24T13:32:22.931Z,14.65
2019-03-24T13:34:53.883Z,22.60
2019-03-24T13:37:24.791Z,11.80
2019-03-24T13:39:55.718Z,17.42
2019-03-24T13:42:26.617Z,10.00
2019-03-24T13:44:58.361Z,16.10
2019-03-24T13:47:29.276Z,20.85
2019-03-24T13:50:00.383Z,13.83
2019-03-24T13:52:31.296Z,13.15
2019-03-24T13:55:02.240Z,14.70
2019-03-24T13:57:33.269Z,18.75
2019-03-24T14:00:07.462Z,18.40
2019-03-24T14:02:40.946Z,16.65
2019-03-24T14:05:11.954Z,15.58
2019-03-24T14:07:44.851Z,18.45
2019-03-24T14:10:16.349Z,17.42
2019-03-24T14:12:47.376Z,33.85
2019-03-24T14:15:19.461Z,15.65
2019-03-24T14:17:51.408Z,13.25
2019-03-24T14:20:22.388Z,16.00
2019-03-24T14:22:55.350Z,11.78
2019-03-24T14:25:25.935Z,7.50
2019-03-24T14:27:56.918Z,11.40
2019-03-24T14:30:46.010Z,14.30
2019-03-24T14:33:16.934Z,13.50
2019-03-24T14:35:48.200Z,13.65
2019-03-24T14:38:19.114Z,12.50
2019-03-24T14:40:50.040Z,16.15
2019-03-24T14:43:20.958Z,11.57
2019-03-24T14:45:52.726Z,16.07
2019-03-24T14:48:23.632Z,11.78
2019-03-24T14:50:55.084Z,14.03
2019-03-24T14:53:26.156Z,12.68
2019-03-24T14:55:57.167Z,15.13
2019-03-24T14:58:28.087Z,13.80
2019-03-24T15:00:59.216Z,18.87
2019-03-24T15:03:30.138Z,26.15
2019-03-24T15:06:01.184Z,11.08
2019-03-24T15:08:32.162Z,23.25
2019-03-24T15:11:03.115Z,91.60
2019-03-24T15:13:34.103Z,31.30
2019-03-24T15:16:05.876Z,29.57
2019-03-24T15:18:37.572Z,42.00
2019-03-24T15:21:11.493Z,29.23
2019-03-24T15:23:42.253Z,23.20
2019-03-24T15:26:13.209Z,15.40
2019-03-24T15:28:44.141Z,11.97
2019-03-24T15:31:15.111Z,17.83
2019-03-24T15:33:46.016Z,18.20
2019-03-24T15:36:16.983Z,11.65
2019-03-24T15:38:47.886Z,13.85
2019-03-24T15:41:18.910Z,17.82
2019-03-24T15:43:49.934Z,17.37
2019-03-24T15:46:21.891Z,17.57
2019-03-24T15:48:52.829Z,15.07
2019-03-24T15:51:23.789Z,9.23
2019-03-24T15:53:56.772Z,11.97
2019-03-24T15:56:48.790Z,12.23
2019-03-24T15:59:20.657Z,8.73
2019-03-24T16:01:54.332Z,9.27
2019-03-24T16:04:25.340Z,8.03
2019-03-24T16:07:06.206Z,15.47
2019-03-24T16:09:48.383Z,15.80
2019-03-24T16:12:28.222Z,50.53
2019-03-24T16:15:00.581Z,94.17
2019-03-24T16:17:32.838Z,23.87
2019-03-24T16:20:07.486Z,24.17
2019-03-24T16:22:41.214Z,21.87
2019-03-24T16:25:12.107Z,17.50
2019-03-24T16:27:43.038Z,11.70
2019-03-24T16:30:13.966Z,11.80
2019-03-24T16:32:45.782Z,13.30
2019-03-24T16:35:16.679Z,15.77
2019-03-24T16:37:47.604Z,18.13
2019-03-24T16:40:19.259Z,13.17
2019-03-24T16:42:50.186Z,13.73
2019-03-24T16:45:21.150Z,17.13
2019-03-24T16:47:52.891Z,17.73
2019-03-24T16:50:23.806Z,20.27
2019-03-24T16:52:54.733Z,22.00
2019-03-24T16:55:27.830Z,18.83
2019-03-24T16:57:58.765Z,50.70
2019-03-24T17:00:29.756Z,56.67
2019-03-24T17:03:00.851Z,30.13
2019-03-24T17:05:31.830Z,22.50
2019-03-24T17:08:02.749Z,19.13
2019-03-24T17:10:33.774Z,22.03
2019-03-24T17:13:04.711Z,25.67
2019-03-24T17:15:35.613Z,15.40
2019-03-24T17:18:07.643Z,26.17
2019-03-24T17:20:41.556Z,29.43
2019-03-24T17:23:12.495Z,18.10
2019-03-24T17:25:43.402Z,17.67
2019-03-24T17:28:14.407Z,18.87
2019-03-24T17:30:45.318Z,21.93
2019-03-24T17:33:17.899Z,16.63
2019-03-24T17:35:48.862Z,19.13
2019-03-24T17:38:19.851Z,20.57
2019-03-24T17:40:50.772Z,21.80
2019-03-24T17:43:22.024Z,26.20
2019-03-24T17:45:54.474Z,25.97
2019-03-24T17:48:26.221Z,31.57
2019-03-24T17:50:57.130Z,29.70
2019-03-24T17:53:28.054Z,31.33
2019-03-24T17:55:58.951Z,37.60
2019-03-24T17:58:29.945Z,36.87
2019-03-24T18:01:01.928Z,37.77
2019-03-24T18:03:33.666Z,40.10
2019-03-24T18:06:04.585Z,41.20
2019-03-24T18:08:35.510Z,37.73
2019-03-24T18:11:06.416Z,46.57
2019-03-24T18:13:37.395Z,66.17
2019-03-24T18:16:08.336Z,56.87
2019-03-24T18:18:40.096Z,31.20
2019-03-24T18:21:11.777Z,27.80
2019-03-24T18:23:42.711Z,27.60
2019-03-24T18:26:13.617Z,29.23
2019-03-24T18:28:44.552Z,27.77
2019-03-24T18:31:15.459Z,34.73
2019-03-24T18:33:47.244Z,28.60
2019-03-24T18:36:18.311Z,34.27
2019-03-24T18:38:49.260Z,30.80
2019-03-24T18:41:20.168Z,28.53
2019-03-24T18:43:51.099Z,40.37
2019-03-24T18:46:22.021Z,105.40
2019-03-24T18:48:53.823Z,70.97
2019-03-24T18:51:24.741Z,71.97
2019-03-24T18:53:55.816Z,60.97
2019-03-24T18:56:26.720Z,72.13
2019-03-24T18:58:57.661Z,66.90
2019-03-24T19:01:28.570Z,60.73
2019-03-24T19:03:59.663Z,60.40
2019-03-24T19:06:30.558Z,47.07
2019-03-24T19:09:01.501Z,34.57
2019-03-24T19:11:33.350Z,77.20
2019-03-24T19:14:04.386Z,53.60
2019-03-24T19:16:35.300Z,48.53
2019-03-24T19:19:07.098Z,37.27
2019-03-24T19:21:38.810Z,34.37
2019-03-24T19:24:09.750Z,31.40
2019-03-24T19:26:40.669Z,39.33
2019-03-24T19:29:11.604Z,30.03
2019-03-24T19:31:42.705Z,39.93
2019-03-24T19:34:14.445Z,32.40
2019-03-24T19:36:45.358Z,33.30
2019-03-24T19:39:16.292Z,36.43
2019-03-24T19:41:47.226Z,26.83
2019-03-24T19:44:18.152Z,29.37
2019-03-24T19:46:49.069Z,45.67
2019-03-24T19:49:20.825Z,45.17
2019-03-24T19:51:51.721Z,35.23
2019-03-24T19:54:22.731Z,31.83
2019-03-24T19:56:53.630Z,24.40
2019-03-24T19:59:24.582Z,21.77
2019-03-24T20:01:55.491Z,29.23
2019-03-24T20:04:27.265Z,23.90
2019-03-24T20:06:58.163Z,22.10
2019-03-24T20:09:29.171Z,31.67
2019-03-24T20:12:00.071Z,28.63
2019-03-24T20:14:31.017Z,25.33
2019-03-24T20:17:02.003Z,24.47
2019-03-24T20:19:32.981Z,23.00
2019-03-24T20:22:05.484Z,26.40
2019-03-24T20:24:36.437Z,28.90
2019-03-24T20:27:07.344Z,23.00
2019-03-24T20:29:38.279Z,25.07
2019-03-24T20:32:09.243Z,27.90
2019-03-24T20:34:40.995Z,26.87
2019-03-24T20:37:11.890Z,30.50
2019-03-24T20:39:43.622Z,31.27
2019-03-24T20:42:14.532Z,33.37
2019-03-24T20:44:45.464Z,31.30
2019-03-24T20:47:16.455Z,24.90
2019-03-24T20:49:48.196Z,22.90
2019-03-24T20:52:19.102Z,32.97
2019-03-24T20:54:50.039Z,32.90
2019-03-24T20:57:20.934Z,28.73
2019-03-24T20:59:54.493Z,27.53
2019-03-24T21:02:25.458Z,25.87
2019-03-24T21:04:57.212Z,28.67
2019-03-24T21:07:28.111Z,31.97
2019-03-24T21:09:59.051Z,27.63
2019-03-24T21:12:29.951Z,28.27
2019-03-24T21:15:00.878Z,29.23
2019-03-24T21:17:31.771Z,26.10
2019-03-24T21:20:02.723Z,24.57
2019-03-24T21:22:34.443Z,27.37
2019-03-24T21:25:06.606Z,20.13
2019-03-24T21:27:37.609Z,21.23
2019-03-24T21:30:11.751Z,24.80
2019-03-24T21:32:42.580Z,35.13
2019-03-24T21:35:14.465Z,35.47
2019-03-24T21:37:45.374Z,29.60
2019-03-24T21:40:16.311Z,31.03
2019-03-24T21:42:47.274Z,28.70
2019-03-24T21:45:18.193Z,30.37
2019-03-24T21:47:49.106Z,29.00
2019-03-24T21:50:20.155Z,26.67
2019-03-24T21:52:51.059Z,32.07
2019-03-24T21:55:22.012Z,33.87
2019-03-24T21:57:57.497Z,37.13
2019-03-24T22:00:33.657Z,29.00
2019-03-24T22:03:04.822Z,37.77
2019-03-24T22:05:35.871Z,32.77
2019-03-24T22:08:06.781Z,49.83
2019-03-24T22:10:37.710Z,57.97
2019-03-24T22:13:08.610Z,53.70
2019-03-24T22:15:39.537Z,46.70
2019-03-24T22:18:10.458Z,46.40
2019-03-24T22:20:48.821Z,48.70
2019-03-24T22:23:15.590Z,45.90
2019-03-24T22:25:46.529Z,44.37
2019-03-24T22:28:17.428Z,36.77
2019-03-24T22:30:48.364Z,33.23
2019-03-24T22:33:19.266Z,36.40
2019-03-24T22:35:51.014Z,35.33
2019-03-24T22:38:21.911Z,26.27
2019-03-24T22:41:02.040Z,30.93
2019-03-24T22:43:32.945Z,33.83
2019-03-24T22:46:03.867Z,33.90
2019-03-24T22:48:34.760Z,35.33
2019-03-24T22:51:05.714Z,33.80
2019-03-24T22:53:36.603Z,30.23
2019-03-24T22:56:07.532Z,31.90
2019-03-24T22:58:38.497Z,33.37
2019-03-24T23:01:10.097Z,31.30
2019-03-24T23:03:41.047Z,28.97
2019-03-24T23:06:13.677Z,32.27
2019-03-24T23:08:44.686Z,28.70
2019-03-24T23:11:15.640Z,26.17
2019-03-24T23:13:46.679Z,29.20
2019-03-24T23:16:17.641Z,28.83
2019-03-24T23:18:48.607Z,18.40
2019-03-24T23:21:25.772Z,44.63
2019-03-24T23:23:57.656Z,43.67
2019-03-24T23:26:28.674Z,48.00
2019-03-24T23:28:59.677Z,35.33
2019-03-24T23:31:30.658Z,39.67
2019-03-24T23:34:08.906Z,31.90
2019-03-24T23:36:39.889Z,32.10
2019-03-24T23:39:10.821Z,35.50
2019-03-24T23:41:41.805Z,35.17
2019-03-24T23:44:12.716Z,41.20
2019-03-24T23:46:43.643Z,32.03
2019-03-24T23:49:14.554Z,27.20
2019-03-24T23:51:46.293Z,29.70
2019-03-24T23:54:27.083Z,32.27
2019-03-24T23:56:54.981Z,27.20
2019-03-24T23:59:25.890Z,29.07
